Date,TemperatureHighF,TemperatureAvgF,TemperatureLowF,DewpointHighF,DewpointAvgF,DewpointLowF,HumidityHigh,HumidityAvg,HumidityLow,PressureMaxIn,PressureMinIn,WindSpeedMaxMPH,WindSpeedAvgMPH,GustSpeedMaxMPH,PrecipitationSumIn
2013-1-1,45.0,41.4,37.0,31.0,27.8,24.0,68,58,51,29.97,29.85,8,4,19,0.00
2013-1-2,36.0,30.9,26.0,24.0,15.2,13.0,64,53,39,30.18,29.97,9,4,13,0.00
2013-1-3,34.0,28.5,19.0,23.0,16.3,9.0,85,63,35,30.21,30.12,8,3,13,0.00
2013-1-4,39.0,34.8,31.0,24.0,21.3,19.0,71,58,46,30.15,30.03,8,4,26,0.00
2013-1-5,41.0,33.7,27.0,25.0,21.0,19.0,81,61,41,30.33,30.09,7,3,18,0.00
2013-1-6,50.0,37.5,29.0,33.0,27.6,21.0,90,71,34,30.24,30.00,9,2,11,0.00
2013-1-7,48.0,38.4,24.0,29.0,25.8,19.0,87,63,42,30.42,30.06,7,3,19,0.00
2013-1-8,50.0,35.1,22.0,34.0,26.9,18.0,90,75,49,30.42,30.36,7,1,10,0.00
2013-1-9,56.0,45.9,31.0,44.0,37.4,29.0,91,73,53,30.39,30.18,5,1,11,0.00
2013-1-10,51.0,41.4,30.0,28.0,26.5,25.0,82,58,36,30.50,30.47,9,2,15,0.00
2013-1-11,52.0,41.0,28.0,50.0,36.8,23.0,95,86,65,30.47,30.06,8,1,13,0.00
2013-1-12,53.0,46.8,44.0,47.0,44.3,42.0,95,91,78,30.15,30.06,4,1,12,0.00
2013-1-13,49.0,44.6,40.0,48.0,43.1,39.0,96,95,88,30.12,30.00,8,3,14,0.00
2013-1-14,56.0,50.5,46.0,51.0,45.6,40.0,96,84,62,30.21,29.97,9,3,14,0.00
2013-1-15,43.0,37.0,34.0,40.0,34.6,31.0,94,91,86,30.30,30.18,5,1,14,0.00
2013-1-16,40.0,36.4,34.0,39.0,34.8,32.0,95,93,92,30.12,29.83,5,1,18,0.00
2013-1-17,40.0,37.9,34.0,37.0,34.2,29.0,94,87,67,30.09,29.94,1,0,8,0.00
2013-1-18,35.0,30.7,21.0,32.0,20.4,9.0,94,70,33,30.47,30.00,9,2,21,0.00
2013-1-19,51.0,39.0,24.0,32.0,23.8,17.0,78,56,31,30.45,30.00,9,4,22,0.00
2013-1-20,56.0,46.2,36.0,31.0,25.7,12.0,64,46,27,30.03,29.77,15,4,32,0.00
2013-1-21,37.0,32.4,25.0,26.0,15.4,8.0,94,52,31,30.09,29.77,13,2,80,0.00
2013-1-22,27.0,20.7,16.0,21.0,0.4,-6.0,79,44,32,30.24,29.85,11,4,24,0.00
2013-1-23,23.0,17.0,11.0,1.0,-3.1,-5.0,57,44,33,30.30,30.18,8,3,16,0.00
2013-1-24,26.0,19.8,16.0,3.0,-1.1,-5.0,58,43,28,30.42,30.09,14,5,25,0.00
2013-1-25,23.0,18.0,11.0,15.0,5.5,-1.0,91,64,40,30.45,30.03,7,2,15,0.00
2013-1-26,29.0,20.6,8.0,15.0,10.1,2.0,91,70,45,30.36,30.03,10,3,20,0.00
2013-1-27,37.0,24.4,16.0,17.0,11.4,6.0,85,62,35,30.53,30.39,10,3,11,0.00
2013-1-28,41.0,31.4,17.0,36.0,27.7,12.0,93,87,81,30.47,30.03,3,1,17,0.00
2013-1-29,58.0,45.5,37.0,47.0,40.6,35.0,93,83,62,30.09,30.03,8,3,12,0.00
2013-1-30,63.0,54.2,46.0,54.0,50.1,44.0,94,86,73,30.03,29.44,26,5,53,0.00
2013-1-31,57.0,42.0,31.0,54.0,19.3,6.0,89,41,31,29.88,29.38,33,13,51,0.00
2013-2-1,31.0,27.3,21.0,25.0,10.7,3.0,94,53,35,30.27,29.83,10,4,47,0.00
2013-2-2,29.0,22.4,9.0,24.0,9.0,0.0,95,60,47,30.33,30.03,9,3,15,0.00
2013-2-3,35.0,28.2,23.0,24.0,21.7,19.0,95,80,51,30.03,29.80,9,2,12,0.00
2013-2-4,31.0,27.7,20.0,27.0,13.7,8.0,83,57,43,30.06,29.83,8,2,31,0.00
2013-2-5,42.0,34.8,30.0,32.0,27.8,21.0,92,76,54,29.91,29.85,5,1,13,0.00
2013-2-6,42.0,34.0,23.0,30.0,24.2,18.0,94,70,46,30.33,29.88,8,2,28,0.00
2013-2-7,38.0,30.5,20.0,30.0,20.1,15.0,89,67,42,30.47,30.24,12,5,16,0.00
2013-2-8,45.0,40.8,34.0,43.0,37.5,31.0,94,89,72,30.21,29.56,10,5,21,0.00
2013-2-9,36.0,31.3,27.0,31.0,18.8,12.0,92,62,43,30.30,29.74,13,5,43,0.00
2013-2-10,38.0,28.6,15.0,29.0,14.0,6.0,80,57,26,30.47,30.30,12,3,14,0.00
2013-2-11,55.0,48.1,36.0,53.0,45.2,31.0,94,90,81,30.30,29.68,9,3,20,0.00
2013-2-12,51.0,43.5,31.0,45.0,29.2,25.0,85,59,36,29.94,29.74,9,4,29,0.00
2013-2-13,44.0,34.9,26.0,34.0,28.7,23.0,93,80,56,29.94,29.59,10,3,18,0.00
2013-2-14,44.0,36.2,30.0,35.0,31.9,28.0,95,85,62,30.00,29.68,7,2,18,0.00
2013-2-15,54.0,40.2,26.0,38.0,32.3,24.0,95,76,45,30.03,29.91,8,3,13,0.00
2013-2-16,41.0,35.9,28.0,34.0,31.2,25.0,96,84,67,29.94,29.74,8,4,14,0.00
2013-2-17,32.0,29.2,25.0,23.0,8.8,0.0,79,43,33,30.03,29.68,12,6,38,0.00
2013-2-18,36.0,28.0,21.0,18.0,7.6,1.0,66,44,31,30.30,30.06,8,4,29,0.00
2013-2-19,48.0,42.2,30.0,45.0,33.8,16.0,92,73,53,30.21,29.71,8,4,24,0.00
2013-2-20,39.0,32.8,26.0,27.0,14.1,8.0,62,46,37,30.03,29.77,8,3,33,0.00
2013-2-21,36.0,29.4,23.0,15.0,11.5,8.0,58,48,37,30.24,30.03,8,4,32,0.00
2013-2-22,38.0,31.9,25.0,33.0,22.8,14.0,93,70,57,30.36,30.21,9,4,15,0.00
2013-2-23,48.0,42.4,35.0,46.0,41.1,33.0,95,95,94,30.21,29.74,6,1,14,0.00
2013-2-24,50.0,40.7,33.0,38.0,30.1,19.0,95,69,44,30.00,29.74,10,5,27,0.00
2013-2-25,45.0,34.6,26.0,27.0,22.5,19.0,89,63,41,30.21,30.03,9,3,12,0.00
2013-2-26,47.0,37.1,24.0,45.0,32.4,20.0,94,85,67,30.21,29.68,12,4,23,0.00
2013-2-27,55.0,47.9,43.0,48.0,42.6,36.0,96,83,53,29.68,29.47,15,3,24,0.00
2013-2-28,45.0,40.7,37.0,40.0,34.1,27.0,94,78,50,29.65,29.56,7,3,14,0.00
2013-3-1,44.0,39.2,33.0,31.0,27.9,25.0,84,65,47,29.80,29.65,10,4,21,0.00
2013-3-2,40.0,36.5,29.0,26.0,22.4,20.0,78,57,44,29.80,29.71,9,4,15,0.00
2013-3-3,39.0,33.9,30.0,21.0,17.4,14.0,65,52,39,29.80,29.71,7,3,23,0.00
2013-3-4,41.0,35.0,30.0,21.0,17.7,15.0,58,49,40,29.94,29.80,8,5,29,0.00
2013-3-5,45.0,35.2,28.0,27.0,23.0,19.0,87,63,44,30.03,29.91,9,3,13,0.00
2013-3-6,41.0,38.6,35.0,37.0,34.8,32.0,91,86,75,29.88,29.53,15,8,54,0.00
2013-3-7,47.0,40.0,34.0,32.0,29.0,27.0,91,66,46,30.03,29.83,16,8,28,0.00
2013-3-8,40.0,35.3,31.0,35.0,30.6,27.0,93,83,63,30.15,30.00,12,6,27,0.00
2013-3-9,60.0,43.8,33.0,28.0,22.8,16.0,71,47,18,30.24,30.15,8,4,12,0.00
2013-3-10,46.0,36.8,25.0,36.0,31.1,21.0,92,81,64,30.36,30.27,11,2,16,0.00
2013-3-11,55.0,44.4,30.0,48.0,40.4,28.0,96,87,72,30.27,30.06,6,2,12,0.00
2013-3-12,54.0,51.7,44.0,52.0,46.7,34.0,93,83,67,30.06,29.74,14,6,25,0.00
2013-3-13,50.0,40.9,33.0,34.0,28.3,23.0,84,63,35,29.94,29.83,8,4,21,0.00
2013-3-14,42.0,36.8,30.0,21.0,14.9,10.0,62,42,28,30.00,29.91,10,4,37,0.00
2013-3-15,49.0,38.3,29.0,30.0,18.8,10.0,69,46,33,30.03,29.77,8,3,20,0.00
2013-3-16,43.0,38.2,31.0,34.0,30.4,26.0,89,74,51,29.85,29.71,6,2,12,0.00
2013-3-17,41.0,36.5,30.0,33.0,24.3,18.0,92,63,39,30.27,29.88,7,3,12,0.00
2013-3-18,47.0,38.4,32.0,45.0,29.9,18.0,95,73,52,30.33,29.88,13,5,18,0.00
2013-3-19,53.0,45.4,40.0,46.0,39.0,29.0,96,81,41,29.83,29.71,9,2,16,0.00
2013-3-20,49.0,40.4,26.0,28.0,19.1,12.0,80,45,22,29.94,29.80,11,4,29,0.00
2013-3-21,41.0,33.3,30.0,29.0,22.4,8.0,93,67,38,29.80,29.65,6,2,15,0.00
2013-3-22,42.0,34.9,28.0,20.0,16.1,9.0,61,47,36,29.94,29.80,10,3,26,0.00
2013-3-23,48.0,38.4,26.0,21.0,19.4,18.0,75,48,31,29.94,29.85,7,4,25,0.00
2013-3-24,45.0,34.9,23.0,27.0,20.7,17.0,85,58,32,29.94,29.68,13,3,18,0.00
2013-3-25,38.0,34.3,32.0,35.0,32.2,28.0,95,92,68,29.68,29.38,14,4,24,0.00
2013-3-26,49.0,40.4,33.0,35.0,31.3,26.0,94,73,43,29.88,29.62,10,3,14,0.00
2013-3-27,49.0,43.1,35.0,31.0,27.0,21.0,78,55,34,30.00,29.88,7,4,25,0.00
2013-3-28,48.0,42.3,35.0,29.0,26.7,24.0,74,55,39,30.12,30.00,7,4,20,0.00
2013-3-29,54.0,44.4,35.0,28.0,26.1,24.0,72,50,33,30.18,30.09,8,3,18,0.00
2013-3-30,57.0,43.2,27.0,32.0,24.9,-99.9,87,56,25,30.18,30.09,8,2,19,0.00
2013-3-31,53.0,44.7,31.0,49.0,38.1,28.0,94,79,50,30.15,29.71,8,3,19,0.00
2013-4-1,64.0,50.2,38.0,47.0,39.4,20.0,95,70,37,29.88,29.65,8,4,24,0.00
2013-4-2,46.0,38.4,25.0,24.0,14.4,11.0,74,40,24,30.12,29.94,8,3,27,0.00
2013-4-3,50.0,39.7,25.0,15.0,11.9,7.0,70,34,21,30.30,30.09,8,5,28,0.00
2013-4-4,47.0,37.2,22.0,31.0,18.4,10.0,74,49,27,30.39,30.12,8,2,14,0.00
2013-4-5,62.0,47.8,37.0,44.0,31.7,20.0,95,62,19,30.09,29.74,11,3,22,0.00
2013-4-6,50.0,42.2,33.0,28.0,21.8,13.0,81,46,25,30.30,29.94,8,2,15,0.00
2013-4-7,55.0,45.3,29.0,44.0,36.1,26.0,91,72,54,30.30,30.03,7,3,18,0.00
2013-4-8,73.0,60.3,51.0,51.0,46.9,43.0,79,63,38,30.06,30.00,5,2,10,0.00
2013-4-9,81.0,68.7,57.0,53.0,51.2,50.0,77,56,34,30.03,29.94,10,4,20,0.00
2013-4-10,86.0,74.1,61.0,54.0,52.7,51.0,75,50,31,29.94,29.77,7,4,14,0.00
2013-4-11,75.0,59.1,47.0,56.0,51.2,46.0,95,77,50,29.91,29.83,8,4,18,0.00
2013-4-12,67.0,52.9,45.0,61.0,50.8,44.0,96,93,77,29.88,29.62,12,3,23,0.00
2013-4-13,59.0,48.9,39.0,42.0,38.2,33.0,95,70,40,29.94,29.65,9,4,20,0.00
2013-4-14,64.0,53.0,38.0,44.0,35.8,28.0,93,58,26,30.15,29.94,7,3,22,0.00
2013-4-15,55.0,50.1,47.0,43.0,40.7,34.0,81,71,56,30.33,30.12,9,3,14,0.00
2013-4-16,64.0,55.9,44.0,52.0,48.4,42.0,92,76,63,30.33,30.15,5,2,16,0.00
2013-4-17,69.0,59.1,48.0,57.0,49.6,39.0,87,72,54,30.27,30.09,6,3,12,0.00
2013-4-18,65.0,55.9,46.0,57.0,50.5,41.0,92,82,71,30.30,30.09,6,2,16,0.00
2013-4-19,69.0,62.0,57.0,60.0,57.2,54.0,92,85,70,30.06,29.68,8,4,36,0.00
2013-4-20,61.0,51.7,44.0,59.0,34.9,24.0,92,58,28,30.27,29.71,10,4,22,0.00
2013-4-21,51.0,42.8,33.0,31.0,24.2,18.0,83,49,29,30.56,30.27,7,2,11,0.00
2013-4-22,51.0,43.3,30.0,41.0,34.9,27.0,92,73,58,30.56,30.39,10,4,22,0.00
2013-4-23,49.0,45.8,43.0,42.0,40.1,37.0,86,81,73,30.39,30.09,6,4,16,0.00
2013-4-24,63.0,50.8,34.0,50.0,44.4,32.0,91,80,61,30.12,29.85,7,3,17,0.00
2013-4-25,64.0,55.0,45.0,52.0,34.2,25.0,86,49,24,30.27,29.88,7,4,31,0.00
2013-4-26,65.0,53.3,35.0,38.0,30.0,23.0,87,47,21,30.39,30.27,6,2,20,0.00
2013-4-27,64.0,51.3,37.0,42.0,33.0,-99.9,86,57,28,30.42,30.30,6,3,11,0.00
2013-4-28,65.0,52.3,36.0,48.0,35.1,26.0,88,58,24,30.30,30.21,8,2,13,0.00
2013-4-29,55.0,53.2,51.0,53.0,50.5,48.0,94,91,77,30.21,30.12,5,1,13,0.00
2013-4-30,62.0,55.1,50.0,49.0,46.1,43.0,95,73,54,30.27,30.12,12,5,22,0.00
2013-5-1,61.0,50.8,42.0,47.0,42.0,32.0,90,74,36,30.42,30.27,7,3,19,0.00
2013-5-2,61.0,49.9,39.0,45.0,40.6,37.0,94,73,45,30.42,30.30,6,3,13,0.00
2013-5-3,55.0,50.0,41.0,45.0,40.7,37.0,90,72,51,30.39,30.33,13,4,18,0.00
2013-5-4,61.0,51.8,42.0,45.0,40.8,38.0,93,68,46,30.27,30.21,9,3,15,0.00
2013-5-5,56.0,49.6,45.0,42.0,39.8,37.0,89,70,56,30.24,30.18,10,4,17,0.00
2013-5-6,57.0,50.7,45.0,51.0,47.3,42.0,94,89,76,30.18,30.12,6,2,15,0.00
2013-5-7,57.0,52.4,50.0,53.0,50.4,49.0,96,93,82,30.09,30.00,10,5,17,0.00
2013-5-8,65.0,55.8,50.0,52.0,49.9,47.0,95,82,53,30.00,29.94,8,3,18,0.00
2013-5-9,69.0,57.7,49.0,53.0,50.7,48.0,95,79,53,29.97,29.88,9,3,11,0.00
2013-5-10,78.0,65.3,51.0,56.0,51.8,-99.9,93,66,42,30.00,29.88,7,3,12,0.00
2013-5-11,72.0,63.2,59.0,62.0,57.4,-99.9,94,84,64,29.91,29.71,6,1,0,0.00
2013-5-12,65.0,57.4,49.0,57.0,42.0,27.0,94,62,27,29.94,29.71,10,3,0,0.00
2013-5-13,59.0,47.9,33.0,38.0,28.9,24.0,88,52,30,30.09,29.97,9,2,26,0.00
2013-5-14,60.0,49.4,33.0,42.0,30.1,25.0,86,52,28,30.15,30.06,9,2,23,0.00
2013-5-15,72.0,61.5,51.0,57.0,50.6,43.0,84,68,53,30.09,29.71,8,3,13,0.00
2013-5-16,80.0,62.4,60.0,60.0,33.4,-99.9,91,63,27,29.83,29.71,8,3,9,0.00
2013-5-17,77.0,63.4,53.0,58.0,39.0,-99.9,89,56,25,30.18,29.83,6,3,13,0.00
2013-5-18,66.0,60.7,56.0,55.0,51.4,44.0,92,72,57,30.27,30.18,8,2,12,0.00
2013-5-19,57.0,55.0,52.0,55.0,53.1,50.0,95,94,92,30.24,30.12,8,2,13,0.00
2013-5-20,76.0,64.5,48.0,63.0,57.3,46.0,94,79,64,30.15,29.97,8,4,16,0.00
2013-5-21,79.0,67.7,58.0,65.0,60.8,56.0,92,79,62,30.00,29.88,9,4,14,0.00
2013-5-22,79.0,68.8,63.0,65.0,62.4,60.0,92,81,63,29.94,29.85,9,4,17,0.00
2013-5-23,76.0,67.2,59.0,64.0,61.6,57.0,93,83,68,29.91,29.77,8,5,24,0.00
2013-5-24,59.0,52.4,47.0,57.0,47.7,35.0,95,85,63,30.00,29.71,10,3,24,0.00
2013-5-25,62.0,52.0,45.0,37.0,33.9,29.0,75,53,30,30.06,29.97,10,5,34,0.00
2013-5-26,69.0,55.5,38.0,42.0,35.7,32.0,85,52,27,30.15,30.06,8,3,35,0.00
2013-5-27,71.0,58.8,39.0,50.0,40.5,34.0,89,57,27,30.27,30.18,6,2,12,0.00
2013-5-28,65.0,58.7,51.0,58.0,54.3,46.0,92,85,75,30.21,30.09,6,1,10,0.00
2013-5-29,86.0,73.2,62.0,65.0,61.6,55.0,82,68,47,30.12,30.06,7,4,16,0.00
2013-5-30,87.0,77.1,70.0,67.0,63.9,61.0,76,65,42,30.18,30.09,7,4,12,0.00
2013-5-31,86.0,75.2,66.0,65.0,63.4,61.0,89,68,47,30.15,30.03,12,3,12,0.00
2013-6-1,86.0,76.5,67.0,67.0,63.3,-99.9,84,68,47,30.06,29.94,10,4,21,0.00
2013-6-2,86.0,74.7,66.0,65.0,63.9,62.0,89,71,48,29.94,29.83,14,4,26,0.00
2013-6-3,68.0,63.6,61.0,66.0,61.0,59.0,94,91,87,29.88,29.80,5,1,25,0.00
2013-6-4,73.0,63.1,53.0,59.0,47.3,39.0,92,60,32,30.09,29.85,11,3,15,0.00
2013-6-5,73.0,60.4,47.0,56.0,48.8,44.0,93,69,39,30.18,30.09,5,2,11,0.00
2013-6-6,70.0,61.1,49.0,60.0,54.8,47.0,95,81,59,30.12,29.94,7,3,13,0.00
2013-6-7,62.0,59.9,54.0,60.0,57.8,52.0,95,93,90,29.94,29.53,7,2,21,0.00
2013-6-8,61.0,21.9,42.0,60.0,53.0,40.0,94,86,72,30.06,29.50,10,4,27,0.00
2013-6-9,-200.0,0.0,200.0,60.0,56.6,48.0,94,71,52,30.18,30.06,5,3,10,0.00
2013-6-10,-200.0,0.0,200.0,59.0,57.1,55.0,94,92,85,30.15,29.85,12,3,22,0.00
2013-6-11,-200.0,0.0,200.0,62.0,59.7,55.0,93,71,56,29.83,29.71,8,4,33,0.00
2013-6-12,-200.0,0.0,200.0,65.0,60.5,57.0,87,65,45,29.85,29.77,7,4,15,0.00
2013-6-13,-200.0,0.0,200.0,67.0,61.6,56.0,93,80,56,29.85,29.41,11,3,31,0.70
2013-6-14,-200.0,0.0,200.0,58.0,51.7,48.0,93,83,52,29.91,29.47,10,4,86,0.35
2013-6-15,-200.0,0.0,200.0,58.0,53.4,46.0,94,71,38,30.03,29.91,9,2,15,0.01
2013-6-16,-200.0,0.0,200.0,66.0,60.3,52.0,92,74,53,30.00,29.85,6,2,32,0.02
2013-6-17,-200.0,0.0,200.0,68.0,62.8,60.0,93,73,54,29.94,29.88,5,2,11,0.00
2013-6-18,-200.0,0.0,200.0,66.0,63.1,59.0,93,86,76,29.91,29.80,5,2,53,0.90
2013-7-15,88.0,83.7,81.0,75.0,73.3,71.0,83,72,57,30.14,30.13,10,5,14,0.00
2013-7-16,92.0,83.1,74.0,75.0,70.1,65.0,89,67,42,30.14,30.09,11,5,17,0.00
2013-7-17,92.0,82.1,69.0,74.0,69.0,66.0,92,67,43,30.14,30.04,9,3,12,0.00
2013-7-18,93.0,83.3,72.0,77.0,73.6,69.0,94,74,52,30.06,29.93,12,6,17,0.00
2013-7-19,93.0,85.2,78.0,77.0,75.1,73.0,90,73,51,29.96,29.81,12,8,21,0.00
2013-7-20,90.0,83.4,80.0,77.0,73.5,-99.9,88,75,60,29.82,29.72,14,10,25,0.33
2013-7-21,88.0,78.0,70.0,75.0,71.4,68.0,98,82,53,29.89,29.81,21,5,26,0.30
2013-7-22,84.0,76.3,71.0,73.0,71.9,70.0,98,87,64,29.87,29.74,10,4,15,0.00
2013-7-23,84.0,77.7,71.0,76.0,72.8,70.0,97,86,66,29.74,29.54,12,7,22,0.37
2013-7-24,86.0,76.4,67.0,70.0,67.3,65.0,96,75,53,29.82,29.61,12,5,17,0.00
2013-7-25,70.0,65.5,62.0,64.0,59.0,55.0,90,80,68,29.97,29.83,17,11,25,0.02
2013-7-26,79.0,69.6,61.0,65.0,61.1,59.0,93,76,55,30.02,29.93,10,5,17,0.00
2013-7-27,80.0,69.1,59.0,66.0,61.8,57.0,96,79,51,30.03,29.91,14,4,15,0.00
2013-7-28,76.0,69.2,60.0,70.0,65.6,59.0,97,89,78,29.92,29.86,11,5,21,0.00
2013-7-29,80.0,69.3,60.0,66.0,62.4,53.0,100,81,41,30.08,29.91,14,4,19,0.00
2013-7-30,78.0,66.2,53.0,59.0,54.9,51.0,93,70,41,30.14,30.07,14,4,20,0.00
2013-7-31,78.0,67.6,56.0,63.0,58.5,53.0,94,74,53,30.12,30.01,12,3,16,0.00
2013-8-1,73.0,66.4,62.0,67.0,64.0,60.0,99,92,76,30.00,29.78,13,5,27,0.20
2013-8-2,78.0,65.9,60.0,65.0,62.4,59.0,99,90,51,29.90,29.77,6,2,0,0.00
2013-8-3,73.0,68.8,64.0,66.0,62.9,61.0,97,82,67,29.90,29.86,7,4,11,0.00
2013-8-4,75.0,68.2,61.0,55.0,52.4,50.0,77,58,44,29.93,29.83,14,6,20,0.00
2013-8-5,74.0,62.5,55.0,56.0,51.8,44.0,88,71,35,30.02,29.93,12,5,16,0.00
2013-8-6,71.0,62.8,55.0,63.0,59.1,53.0,97,88,65,30.07,30.00,7,2,15,0.10
2013-8-7,70.0,65.7,61.0,65.0,62.8,60.0,97,91,82,30.08,30.01,12,5,20,0.21
2013-8-8,78.0,71.0,67.0,68.0,65.7,63.0,94,84,68,30.03,29.97,15,9,22,0.08
2013-8-9,81.0,72.4,69.0,71.0,69.0,68.0,97,90,68,29.98,29.79,16,6,24,0.16
2013-8-10,77.0,70.3,63.0,69.0,64.4,57.0,96,83,51,30.01,29.86,10,4,15,0.00
2013-8-11,75.0,66.6,61.0,66.0,62.5,57.0,98,87,61,30.07,29.99,10,4,13,0.00
2013-8-12,73.0,65.2,60.0,68.0,63.5,60.0,98,95,84,30.00,29.89,4,0,6,0.00
2013-8-13,67.0,53.2,65.0,64.0,31.0,-99.9,95,74,92,29.88,29.70,4,2,19,0.00
2013-8-14,70.0,62.0,58.0,65.0,51.0,-99.9,96,72,46,30.01,29.71,12,8,24,0.07
2013-8-15,68.0,51.6,49.0,54.0,34.6,-99.9,92,69,45,30.12,30.02,8,3,16,0.00
2013-8-16,74.0,56.9,48.0,56.0,45.2,-99.9,94,75,38,30.15,30.09,8,2,15,0.00
2013-8-17,72.0,58.8,53.0,59.0,51.7,-99.9,96,82,51,30.22,30.15,10,4,15,0.00
2013-8-18,73.0,65.7,61.0,62.0,58.5,53.0,93,79,60,30.19,30.08,11,5,21,0.00
2013-8-19,72.0,61.4,56.0,64.0,52.1,-99.9,95,82,66,30.12,30.03,9,3,15,0.00
2013-8-20,64.0,64.0,64.0,63.0,62.5,62.0,96,96,95,30.05,30.05,3,2,6,0.00
2013-8-21,78.0,8.7,78.0,65.0,63.6,61.0,88,76,63,30.07,30.05,10,5,20,0.00
2013-8-22,-200.0,0.0,200.0,67.0,64.4,62.0,99,90,63,30.06,29.88,9,5,20,0.12
2013-8-23,-200.0,0.0,200.0,62.0,58.6,55.0,0,0,100,30.03,29.85,12,5,18,0.00
2013-8-24,-200.0,0.0,200.0,59.0,53.7,-99.9,0,0,100,30.29,30.04,14,5,21,0.00
2013-8-25,-200.0,0.0,200.0,55.0,49.9,39.0,0,0,100,30.37,30.24,9,4,15,0.00
2013-8-26,-200.0,0.0,200.0,64.0,58.3,50.0,0,0,100,30.26,29.96,13,7,21,0.00
2013-8-27,-200.0,0.0,200.0,65.0,63.5,61.0,0,0,100,29.94,29.82,12,8,20,0.00
2013-8-28,-200.0,0.0,200.0,70.0,65.0,61.0,0,0,100,29.84,29.79,8,4,18,2.10
2013-8-29,-200.0,0.0,200.0,60.0,57.6,55.0,0,0,100,29.98,29.80,19,7,22,0.00
2013-8-30,-200.0,0.0,200.0,60.0,57.2,54.0,0,0,100,29.98,29.87,10,6,16,0.00
2013-8-31,-200.0,0.0,200.0,64.0,55.8,-99.9,0,0,100,29.90,29.78,17,9,25,0.00
2013-9-1,-200.0,0.0,200.0,67.0,65.3,60.0,0,0,100,29.83,29.74,13,6,21,0.00
2013-9-2,-200.0,0.0,200.0,66.0,63.7,60.0,0,0,100,29.76,29.69,8,4,14,0.01
2013-9-3,-200.0,0.0,200.0,65.0,58.4,52.0,0,0,100,29.86,29.69,13,4,18,0.00
2013-9-4,-200.0,0.0,200.0,57.0,53.0,46.0,0,0,100,30.00,29.87,14,5,20,0.00
2013-9-5,-200.0,0.0,200.0,63.0,57.4,49.0,0,0,100,30.07,29.93,16,6,79,0.00
2013-9-6,-200.0,0.0,200.0,54.0,48.9,46.0,0,0,100,30.19,30.09,11,5,15,0.00
2013-9-7,-200.0,0.0,200.0,57.0,48.6,-99.9,0,0,100,30.11,29.92,9,3,22,0.00
2013-9-8,-200.0,0.0,200.0,66.0,62.3,56.0,0,0,100,30.00,29.79,13,6,21,0.00
2013-9-9,-200.0,0.0,200.0,62.0,55.7,47.0,0,0,100,30.17,30.01,15,7,19,0.00
2013-9-10,-200.0,0.0,200.0,72.0,69.0,61.0,0,0,100,30.16,30.05,17,7,20,0.00
2013-9-11,74.0,2.1,74.0,73.0,70.7,68.0,89,2,89,30.11,29.99,14,6,20,0.00
2013-9-12,89.0,77.7,70.0,73.0,70.3,69.0,98,79,53,29.98,29.69,14,8,22,0.59
2013-9-13,78.0,71.0,60.0,71.0,62.7,53.0,100,78,44,29.83,29.63,11,6,22,0.00
2013-9-14,69.0,57.8,48.0,53.0,46.7,-99.9,92,71,46,30.11,29.83,12,5,19,0.00
2013-9-15,73.0,55.6,39.0,58.0,47.5,36.0,95,77,43,30.20,30.09,10,3,18,0.00
2013-9-16,72.0,64.8,57.0,64.0,58.3,53.0,92,80,59,30.16,30.01,12,5,17,0.00
2013-9-17,65.0,56.6,43.0,53.0,44.5,40.0,91,65,44,30.36,30.17,17,8,22,0.00
2013-9-18,50.0,42.6,39.0,45.0,40.7,37.0,96,92,81,30.32,30.18,3,2,5,0.00
2013-9-19,73.0,57.9,42.0,54.0,48.4,40.0,93,73,43,30.18,30.06,12,3,21,0.00
2013-9-20,74.0,61.1,46.0,60.0,52.9,43.0,96,77,53,30.07,29.97,9,2,11,0.00
2013-9-21,78.0,64.8,48.0,69.0,57.3,-99.9,98,81,49,29.99,29.68,11,5,23,0.08
2013-9-22,73.0,64.9,53.0,67.0,54.9,45.0,99,73,40,29.87,29.63,17,8,23,0.23
2013-9-23,67.0,54.8,44.0,50.0,44.2,41.0,95,70,41,30.01,29.88,13,6,22,0.00
2013-9-24,71.0,54.7,40.0,52.0,44.5,38.0,94,72,37,30.03,29.88,12,5,17,0.00
2013-9-25,74.0,57.7,44.0,57.0,50.5,42.0,96,79,48,29.91,29.85,13,4,13,0.00
2013-9-26,73.0,59.2,49.0,56.0,52.1,47.0,99,80,49,30.04,29.89,13,3,13,0.00
2013-9-27,71.0,60.5,51.0,56.0,52.6,50.0,98,77,49,30.20,30.04,13,6,18,0.00
2013-9-28,71.0,61.8,54.0,54.0,51.0,-99.9,94,72,51,30.26,30.19,14,7,21,0.00
2013-9-29,71.0,59.9,49.0,56.0,50.9,47.0,98,75,43,30.17,30.04,16,7,21,0.00
2013-9-30,73.0,57.9,47.0,56.0,51.2,45.0,98,81,47,30.03,29.96,12,4,13,0.00
2013-10-1,66.0,62.2,58.0,61.0,58.8,56.0,92,90,86,29.96,29.94,4,3,6,0.00
2013-10-2,83.0,69.1,56.0,63.0,59.6,54.0,99,76,45,30.01,29.92,15,5,19,0.00
2013-10-3,79.0,68.4,57.0,66.0,62.0,56.0,98,82,52,30.08,30.01,7,4,13,0.00
2013-10-4,84.0,69.9,57.0,66.0,61.1,55.0,97,77,45,30.05,29.96,11,3,15,0.00
2013-10-5,83.0,69.4,62.0,69.0,64.7,59.0,100,86,62,30.03,29.99,11,5,15,0.00
2013-10-6,83.0,72.8,66.0,70.0,67.6,66.0,100,85,57,30.03,29.95,13,6,21,0.00
2013-10-7,80.0,70.3,62.0,70.0,66.6,60.0,98,89,72,29.98,29.79,22,10,32,0.50
2013-10-8,65.0,57.8,51.0,58.0,49.4,47.0,90,75,54,30.23,29.99,13,6,23,0.00
2013-10-9,63.0,58.8,54.0,55.0,50.5,48.0,91,74,66,30.26,30.16,15,9,30,0.00
2013-10-10,64.0,61.5,58.0,63.0,60.4,56.0,98,96,92,30.15,29.92,22,14,30,1.29
2013-10-11,66.0,64.0,63.0,65.0,63.3,62.0,98,97,96,29.95,29.86,23,14,31,1.15
2013-10-12,67.0,62.0,61.0,62.0,58.4,-99.9,97,92,77,30.12,29.93,21,14,33,1.47
2013-10-13,66.0,62.1,58.0,62.0,56.2,53.0,97,81,66,30.29,30.12,21,14,33,0.06
2013-10-14,67.0,57.0,50.0,56.0,52.4,49.0,98,86,66,30.29,30.21,14,6,17,0.00
2013-10-15,71.0,58.2,48.0,56.0,50.6,47.0,98,79,45,30.21,30.06,13,7,19,0.00
2013-10-16,72.0,62.6,57.0,61.0,59.5,56.0,100,90,69,30.05,29.92,8,4,11,0.00
2013-10-17,74.0,65.8,61.0,64.0,62.1,60.0,99,89,69,29.91,29.72,9,5,16,0.00
2013-10-18,69.0,60.6,46.0,64.0,47.5,42.0,91,65,42,29.98,29.72,15,8,24,0.00
2013-10-19,63.0,52.8,41.0,61.0,46.5,-99.9,98,84,53,29.98,29.77,9,2,12,0.04
2013-10-20,63.0,53.5,38.0,56.0,40.2,33.0,91,64,33,30.06,29.79,12,5,19,0.00
2013-10-21,67.0,49.3,34.0,50.0,39.8,33.0,95,74,31,30.14,29.98,13,3,17,0.00
2013-10-22,67.0,55.3,44.0,52.0,46.4,42.0,96,74,46,29.97,29.75,10,4,20,0.00
2013-10-23,53.0,47.9,43.0,49.0,43.8,37.0,98,86,65,29.80,29.58,7,4,14,0.31
2013-10-24,52.0,44.4,35.0,38.0,32.7,26.0,91,67,36,30.05,29.79,21,7,27,0.00
2013-10-25,56.0,43.0,33.0,34.0,32.2,30.0,91,68,42,30.25,30.05,15,6,23,0.00
2013-10-26,58.0,42.3,27.0,39.0,29.8,-99.9,96,69,37,30.25,29.93,17,7,28,0.00
2013-10-27,59.0,51.1,34.0,38.0,33.7,29.0,87,54,33,30.12,29.89,17,8,25,0.00
2013-10-28,64.0,45.9,30.0,46.0,36.2,-99.9,95,76,46,30.24,30.12,8,2,15,0.00
2013-10-29,62.0,51.0,43.0,48.0,44.3,40.0,97,80,58,30.32,30.24,11,6,18,0.00
2013-10-30,59.0,49.7,42.0,54.0,48.3,41.0,100,96,82,30.31,30.16,4,1,7,0.02
2013-10-31,72.0,60.0,47.0,63.0,55.8,47.0,100,88,64,30.18,29.87,16,6,23,3.55
2013-11-1,69.0,65.1,60.0,65.0,62.0,59.0,100,90,77,29.84,29.62,17,8,31,0.16
2013-11-2,70.0,62.9,57.0,63.0,52.5,43.0,100,73,37,29.73,29.59,10,5,20,0.00
2013-11-3,55.0,47.9,37.0,42.0,32.9,22.0,87,58,33,30.39,29.83,19,10,22,0.00
2013-11-4,48.0,39.5,32.0,32.0,25.7,19.0,79,58,45,30.58,30.40,12,8,20,0.00
2013-11-5,58.0,46.5,36.0,45.0,39.9,31.0,97,79,59,30.57,30.45,12,4,16,0.00
2013-11-6,63.0,52.3,35.0,58.0,46.8,34.0,98,83,58,30.45,30.09,15,5,18,0.00
2013-11-7,63.0,57.3,44.0,62.0,55.2,40.0,99,92,75,30.06,29.77,14,8,26,0.27
2013-11-8,51.0,44.0,36.0,40.0,28.0,25.0,84,54,35,30.24,29.96,18,8,31,0.00
2013-11-9,51.0,40.7,27.0,38.0,27.1,-99.9,92,64,39,30.30,30.04,15,6,17,0.00
2013-11-10,63.0,53.6,46.0,39.0,33.1,25.0,74,48,25,30.11,29.85,22,10,39,0.00
2013-11-11,54.0,46.4,31.0,38.0,31.6,27.0,86,58,39,30.24,30.01,17,7,22,0.00
2013-11-12,51.0,40.9,33.0,43.0,26.8,13.0,86,58,36,30.29,29.94,20,11,34,0.00
2013-11-13,42.0,32.0,24.0,18.0,13.2,9.0,74,48,26,30.38,30.29,18,7,26,0.00
2013-11-14,55.0,42.8,30.0,34.0,26.4,20.0,84,55,26,30.33,30.21,16,8,21,0.00
2013-11-15,54.0,44.0,34.0,37.0,35.0,30.0,88,72,42,30.24,30.17,11,4,18,0.00
2013-11-16,51.0,46.0,35.0,49.0,43.0,-99.9,99,93,89,30.31,30.23,8,3,9,0.33
2013-11-17,64.0,58.1,45.0,62.0,56.6,45.0,100,95,83,30.21,29.81,14,5,21,0.00
2013-11-18,68.0,59.5,51.0,64.0,43.6,26.0,99,61,26,29.79,29.65,19,9,33,0.20
2013-11-19,52.0,45.0,33.0,27.0,24.4,22.0,61,44,36,30.31,29.81,20,10,32,0.00
2013-11-20,46.0,36.6,31.0,27.0,23.3,21.0,72,59,40,30.52,30.31,12,6,20,0.00
2013-11-21,55.0,42.7,30.0,43.0,34.6,24.0,91,75,55,30.52,30.37,9,4,17,0.00
2013-11-22,58.0,52.4,44.0,55.0,49.8,43.0,99,92,84,30.36,29.93,14,4,19,0.07
2013-11-23,54.0,45.4,35.0,53.0,28.0,-99.9,100,55,31,30.04,29.93,16,10,32,0.00
2013-11-24,33.0,27.9,23.0,10.0,-0.5,-5.0,39,30,21,30.42,30.02,28,14,40,0.00
2013-11-25,36.0,28.0,21.0,18.0,11.4,6.0,62,51,35,30.52,30.35,9,6,17,0.00
2013-11-26,57.0,42.2,35.0,57.0,33.0,21.0,99,72,45,30.35,29.70,13,7,28,0.57
2013-11-27,62.0,44.9,34.0,62.0,42.4,22.0,99,91,60,29.80,29.34,20,13,38,0.86
2013-11-28,38.0,31.9,25.0,23.0,16.8,14.0,86,56,37,30.47,29.85,29,9,31,0.00
2013-11-29,44.0,32.4,23.0,26.0,20.2,17.0,94,65,34,30.68,30.45,12,3,15,0.00
2013-11-30,42.0,32.6,24.0,31.0,21.9,-99.9,77,67,57,30.67,30.34,13,6,18,0.00
2013-12-1,47.0,37.8,27.0,35.0,30.8,25.0,93,76,57,30.32,30.01,11,4,12,0.00
2013-12-2,50.0,36.0,27.0,37.0,30.8,25.0,98,84,55,30.00,29.85,6,1,8,0.00
2013-12-3,56.0,40.2,29.0,43.0,35.2,27.0,99,85,51,29.98,29.83,9,3,18,0.00
2013-12-4,57.0,46.2,32.0,51.0,41.9,29.0,98,86,63,30.08,29.98,7,3,10,0.00
2013-12-5,59.0,54.9,49.0,57.0,53.9,49.0,100,96,87,30.08,29.94,12,5,19,0.00
2013-12-6,64.0,52.6,41.0,62.0,52.0,40.0,99,97,91,30.05,29.89,13,8,20,0.49
2013-12-7,44.0,36.6,27.0,40.0,30.4,-99.9,99,83,58,30.47,30.05,14,7,24,0.31
2013-12-8,34.0,29.8,24.0,34.0,25.8,19.0,100,87,65,30.55,30.25,13,7,16,0.53
2013-12-9,41.0,37.8,35.0,41.0,37.6,35.0,100,99,97,30.24,30.00,12,6,19,1.14
2013-12-10,35.0,33.0,31.0,35.0,31.4,24.0,99,94,75,30.15,29.89,10,4,16,0.30
2013-12-11,38.0,29.4,20.0,23.0,19.3,15.0,95,71,40,30.37,30.18,12,4,21,0.00
2013-12-12,31.0,24.5,17.0,18.0,13.0,6.0,94,66,39,30.35,30.20,19,7,24,0.00
2013-12-13,40.0,32.6,25.0,23.0,16.7,10.0,89,54,34,30.30,30.17,16,7,25,0.00
2013-12-14,53.0,37.7,28.0,53.0,32.4,-99.9,99,85,60,30.35,29.66,18,6,24,1.08
2013-12-15,56.0,41.3,33.0,56.0,34.6,20.0,100,79,57,29.89,29.53,19,10,29,0.18
2013-12-16,37.0,31.5,24.0,25.0,16.2,9.0,73,54,39,30.20,29.89,17,9,29,0.00
2013-12-17,51.0,36.7,29.0,42.0,29.1,12.0,97,76,48,30.17,29.90,11,6,19,0.04
2013-12-18,40.0,31.5,23.0,29.0,21.5,16.0,94,71,39,30.20,29.88,17,7,29,0.00
2013-12-19,52.0,39.1,21.0,33.0,26.4,18.0,94,65,41,30.20,30.06,15,6,24,0.00
2013-12-20,58.0,50.2,44.0,51.0,38.6,30.0,86,65,49,30.11,30.01,17,8,23,0.00
2013-12-21,69.0,57.2,52.0,55.0,48.0,-99.9,94,75,53,30.02,29.92,22,9,30,0.00
2013-12-22,66.0,60.7,56.0,61.0,58.3,56.0,98,92,83,29.98,29.90,19,9,31,0.11
2013-12-23,63.0,56.6,44.0,62.0,40.4,-99.9,100,85,81,30.10,29.90,20,8,25,0.40
2013-12-24,43.0,37.2,27.0,38.0,23.5,9.0,86,58,39,30.34,30.09,19,9,30,0.01
2013-12-25,34.0,25.8,19.0,16.0,10.9,6.0,88,57,31,30.50,30.35,11,4,20,0.00
2013-12-26,42.0,27.2,18.0,26.0,19.5,14.0,92,78,40,30.38,30.19,11,3,15,0.00
2013-12-27,44.0,31.7,19.0,28.0,21.0,16.0,93,70,33,30.40,30.28,11,4,16,0.00
2013-12-28,54.0,41.5,30.0,32.0,27.8,-99.9,91,63,35,30.30,30.11,12,8,20,0.00
2013-12-29,59.0,47.2,42.0,58.0,40.5,28.0,100,81,44,30.09,29.43,24,10,43,1.17
2013-12-30,49.0,40.2,32.0,39.0,32.4,23.0,98,75,54,30.13,29.75,16,6,22,0.00
2013-12-31,41.0,33.2,26.0,27.0,19.3,15.0,75,58,43,30.29,30.08,14,6,22,0.00
2014-1-1,43.0,31.1,20.0,31.0,21.7,15.0,96,73,38,30.40,30.16,10,3,16,0.00
2014-1-2,37.0,32.6,28.0,35.0,31.5,28.0,100,96,89,30.14,29.55,13,6,18,0.18